sensor_id;sensor_type;location;lat;lon;timestamp;P1;durP1;ratioP1;P2;durP2;ratioP2
11348;SDS011;5729;43.570;27.826;2023-02-12T00:01:00;20.33;;;9.20;;
11348;SDS011;5729;43.570;27.826;2023-02-12T00:03:25;27.27;;;10.90;;
11348;SDS011;5729;43.570;27.826;2023-02-12T00:05:51;20.47;;;11.10;;
11348;SDS011;5729;43.570;27.826;2023-02-12T00:08:16;18.67;;;10.37;;
11348;SDS011;5729;43.570;27.826;2023-02-12T00:10:42;20.53;;;10.63;;
11348;SDS011;5729;43.570;27.826;2023-02-12T00:13:08;17.70;;;10.00;;
11348;SDS011;5729;43.570;27.826;2023-02-12T00:15:37;18.43;;;9.63;;
11348;SDS011;5729;43.570;27.826;2023-02-12T00:18:06;18.40;;;10.67;;
11348;SDS011;5729;43.570;27.826;2023-02-12T00:20:32;20.37;;;10.07;;
11348;SDS011;5729;43.570;27.826;2023-02-12T00:22:58;19.10;;;10.47;;
11348;SDS011;5729;43.570;27.826;2023-02-12T00:25:24;16.83;;;10.27;;
11348;SDS011;5729;43.570;27.826;2023-02-12T00:27:49;21.73;;;12.07;;
11348;SDS011;5729;43.570;27.826;2023-02-12T00:30:15;18.87;;;10.50;;
11348;SDS011;5729;43.570;27.826;2023-02-12T00:32:40;18.63;;;10.30;;
11348;SDS011;5729;43.570;27.826;2023-02-12T00:35:06;25.73;;;12.37;;
11348;SDS011;5729;43.570;27.826;2023-02-12T00:37:31;19.87;;;11.60;;
11348;SDS011;5729;43.570;27.826;2023-02-12T00:39:57;19.87;;;11.43;;
11348;SDS011;5729;43.570;27.826;2023-02-12T00:42:22;17.23;;;9.87;;
11348;SDS011;5729;43.570;27.826;2023-02-12T00:44:48;16.97;;;10.27;;
11348;SDS011;5729;43.570;27.826;2023-02-12T00:47:13;17.57;;;10.10;;
11348;SDS011;5729;43.570;27.826;2023-02-12T00:49:41;20.60;;;10.30;;
11348;SDS011;5729;43.570;27.826;2023-02-12T00:52:06;18.47;;;10.67;;
11348;SDS011;5729;43.570;27.826;2023-02-12T00:54:31;18.00;;;10.83;;
11348;SDS011;5729;43.570;27.826;2023-02-12T00:56:57;21.47;;;11.43;;
11348;SDS011;5729;43.570;27.826;2023-02-12T00:59:23;17.20;;;10.97;;
11348;SDS011;5729;43.570;27.826;2023-02-12T01:01:49;20.07;;;11.43;;
11348;SDS011;5729;43.570;27.826;2023-02-12T01:04:16;24.30;;;12.47;;
11348;SDS011;5729;43.570;27.826;2023-02-12T01:06:42;18.63;;;9.97;;
11348;SDS011;5729;43.570;27.826;2023-02-12T01:09:08;20.47;;;11.43;;
11348;SDS011;5729;43.570;27.826;2023-02-12T01:11:33;17.83;;;10.83;;
11348;SDS011;5729;43.570;27.826;2023-02-12T01:13:59;18.47;;;10.37;;
11348;SDS011;5729;43.570;27.826;2023-02-12T01:16:24;19.57;;;10.43;;
11348;SDS011;5729;43.570;27.826;2023-02-12T01:18:50;18.53;;;11.60;;
11348;SDS011;5729;43.570;27.826;2023-02-12T01:21:22;17.80;;;10.20;;
11348;SDS011;5729;43.570;27.826;2023-02-12T01:23:50;17.13;;;10.87;;
11348;SDS011;5729;43.570;27.826;2023-02-12T01:26:16;19.13;;;11.97;;
11348;SDS011;5729;43.570;27.826;2023-02-12T01:28:43;17.47;;;10.77;;
11348;SDS011;5729;43.570;27.826;2023-02-12T01:31:13;17.23;;;10.63;;
11348;SDS011;5729;43.570;27.826;2023-02-12T01:33:41;21.50;;;11.57;;
11348;SDS011;5729;43.570;27.826;2023-02-12T01:36:07;18.83;;;10.60;;
11348;SDS011;5729;43.570;27.826;2023-02-12T01:38:34;20.63;;;11.57;;
11348;SDS011;5729;43.570;27.826;2023-02-12T01:41:03;18.07;;;10.33;;
11348;SDS011;5729;43.570;27.826;2023-02-12T01:43:32;17.83;;;10.57;;
11348;SDS011;5729;43.570;27.826;2023-02-12T01:45:59;18.77;;;11.67;;
11348;SDS011;5729;43.570;27.826;2023-02-12T01:48:26;17.33;;;10.37;;
11348;SDS011;5729;43.570;27.826;2023-02-12T01:50:55;17.83;;;10.33;;
11348;SDS011;5729;43.570;27.826;2023-02-12T01:53:22;16.13;;;9.80;;
11348;SDS011;5729;43.570;27.826;2023-02-12T01:55:53;17.83;;;10.80;;
11348;SDS011;5729;43.570;27.826;2023-02-12T01:58:23;19.43;;;11.27;;
11348;SDS011;5729;43.570;27.826;2023-02-12T02:00:51;16.63;;;10.50;;
11348;SDS011;5729;43.570;27.826;2023-02-12T02:03:17;23.00;;;11.07;;
11348;SDS011;5729;43.570;27.826;2023-02-12T02:08:08;21.07;;;11.07;;
11348;SDS011;5729;43.570;27.826;2023-02-12T02:10:35;21.40;;;11.67;;
11348;SDS011;5729;43.570;27.826;2023-02-12T02:13:00;21.47;;;10.80;;
11348;SDS011;5729;43.570;27.826;2023-02-12T02:15:46;14.00;;;9.13;;
11348;SDS011;5729;43.570;27.826;2023-02-12T02:32:18;21.33;;;12.27;;
11348;SDS011;5729;43.570;27.826;2023-02-12T02:37:39;19.77;;;11.23;;
11348;SDS011;5729;43.570;27.826;2023-02-12T02:40:08;19.37;;;10.93;;
11348;SDS011;5729;43.570;27.826;2023-02-12T02:43:01;17.40;;;10.37;;
11348;SDS011;5729;43.570;27.826;2023-02-12T02:48:11;19.67;;;10.60;;
11348;SDS011;5729;43.570;27.826;2023-02-12T02:50:56;18.80;;;11.27;;
11348;SDS011;5729;43.570;27.826;2023-02-12T02:53:32;16.33;;;10.37;;
11348;SDS011;5729;43.570;27.826;2023-02-12T02:56:02;18.47;;;11.70;;
11348;SDS011;5729;43.570;27.826;2023-02-12T02:58:34;22.63;;;12.80;;
11348;SDS011;5729;43.570;27.826;2023-02-12T03:01:08;23.27;;;12.77;;
11348;SDS011;5729;43.570;27.826;2023-02-12T03:03:43;22.50;;;13.13;;
11348;SDS011;5729;43.570;27.826;2023-02-12T03:06:29;22.37;;;13.37;;
11348;SDS011;5729;43.570;27.826;2023-02-12T03:09:15;23.80;;;12.30;;
11348;SDS011;5729;43.570;27.826;2023-02-12T03:11:45;22.33;;;13.50;;
11348;SDS011;5729;43.570;27.826;2023-02-12T03:14:13;21.00;;;12.90;;
11348;SDS011;5729;43.570;27.826;2023-02-12T03:16:48;29.53;;;15.47;;
11348;SDS011;5729;43.570;27.826;2023-02-12T03:19:28;21.57;;;12.50;;
11348;SDS011;5729;43.570;27.826;2023-02-12T03:22:03;23.40;;;13.20;;
11348;SDS011;5729;43.570;27.826;2023-02-12T03:29:53;19.80;;;13.70;;
11348;SDS011;5729;43.570;27.826;2023-02-12T03:32:23;22.87;;;13.10;;
11348;SDS011;5729;43.570;27.826;2023-02-12T03:38:15;20.90;;;12.67;;
11348;SDS011;5729;43.570;27.826;2023-02-12T03:40:22;20.87;;;12.70;;
11348;SDS011;5729;43.570;27.826;2023-02-12T03:43:06;21.20;;;12.63;;
11348;SDS011;5729;43.570;27.826;2023-02-12T03:48:32;24.80;;;14.30;;
11348;SDS011;5729;43.570;27.826;2023-02-12T03:53:43;21.50;;;12.57;;
11348;SDS011;5729;43.570;27.826;2023-02-12T03:56:11;22.43;;;12.57;;
11348;SDS011;5729;43.570;27.826;2023-02-12T03:58:58;22.77;;;13.50;;
11348;SDS011;5729;43.570;27.826;2023-02-12T04:01:24;21.03;;;13.07;;
11348;SDS011;5729;43.570;27.826;2023-02-12T04:03:51;23.33;;;14.30;;
11348;SDS011;5729;43.570;27.826;2023-02-12T04:06:20;22.23;;;12.97;;
11348;SDS011;5729;43.570;27.826;2023-02-12T04:08:52;24.50;;;14.13;;
11348;SDS011;5729;43.570;27.826;2023-02-12T04:11:26;21.50;;;12.87;;
11348;SDS011;5729;43.570;27.826;2023-02-12T04:17:02;23.77;;;13.53;;
11348;SDS011;5729;43.570;27.826;2023-02-12T04:34:34;25.83;;;16.00;;
11348;SDS011;5729;43.570;27.826;2023-02-12T04:37:17;24.73;;;16.73;;
11348;SDS011;5729;43.570;27.826;2023-02-12T04:39:46;23.80;;;14.60;;
11348;SDS011;5729;43.570;27.826;2023-02-12T04:42:13;24.10;;;13.90;;
11348;SDS011;5729;43.570;27.826;2023-02-12T04:44:40;29.93;;;15.87;;
11348;SDS011;5729;43.570;27.826;2023-02-12T04:47:11;23.70;;;14.53;;
11348;SDS011;5729;43.570;27.826;2023-02-12T04:49:38;24.50;;;14.27;;
11348;SDS011;5729;43.570;27.826;2023-02-12T04:52:04;25.33;;;16.17;;
11348;SDS011;5729;43.570;27.826;2023-02-12T04:54:30;27.07;;;15.70;;
11348;SDS011;5729;43.570;27.826;2023-02-12T04:56:55;27.63;;;16.03;;
11348;SDS011;5729;43.570;27.826;2023-02-12T04:59:21;28.73;;;15.73;;
11348;SDS011;5729;43.570;27.826;2023-02-12T05:01:46;28.57;;;15.70;;
11348;SDS011;5729;43.570;27.826;2023-02-12T05:04:12;26.60;;;15.20;;
11348;SDS011;5729;43.570;27.826;2023-02-12T05:06:39;23.23;;;14.27;;
11348;SDS011;5729;43.570;27.826;2023-02-12T05:09:06;24.83;;;14.97;;
11348;SDS011;5729;43.570;27.826;2023-02-12T05:11:32;23.90;;;15.07;;
11348;SDS011;5729;43.570;27.826;2023-02-12T05:13:58;23.67;;;14.50;;
11348;SDS011;5729;43.570;27.826;2023-02-12T05:16:24;29.30;;;16.07;;
11348;SDS011;5729;43.570;27.826;2023-02-12T05:18:50;26.23;;;15.90;;
11348;SDS011;5729;43.570;27.826;2023-02-12T05:21:15;31.53;;;17.10;;
11348;SDS011;5729;43.570;27.826;2023-02-12T05:23:41;29.47;;;15.83;;
11348;SDS011;5729;43.570;27.826;2023-02-12T05:26:09;26.47;;;15.63;;
11348;SDS011;5729;43.570;27.826;2023-02-12T05:28:37;27.77;;;15.03;;
11348;SDS011;5729;43.570;27.826;2023-02-12T05:31:05;28.60;;;16.17;;
11348;SDS011;5729;43.570;27.826;2023-02-12T05:33:32;32.07;;;18.03;;
11348;SDS011;5729;43.570;27.826;2023-02-12T05:36:02;31.30;;;17.70;;
11348;SDS011;5729;43.570;27.826;2023-02-12T05:38:39;35.37;;;20.93;;
11348;SDS011;5729;43.570;27.826;2023-02-12T05:41:06;33.53;;;19.50;;
11348;SDS011;5729;43.570;27.826;2023-02-12T05:43:33;33.67;;;18.10;;
11348;SDS011;5729;43.570;27.826;2023-02-12T05:46:00;32.83;;;19.87;;
11348;SDS011;5729;43.570;27.826;2023-02-12T05:48:27;32.37;;;19.30;;
11348;SDS011;5729;43.570;27.826;2023-02-12T05:50:53;32.27;;;19.20;;
11348;SDS011;5729;43.570;27.826;2023-02-12T05:53:19;29.60;;;17.33;;
11348;SDS011;5729;43.570;27.826;2023-02-12T05:55:45;31.07;;;17.23;;
11348;SDS011;5729;43.570;27.826;2023-02-12T05:58:10;30.00;;;17.33;;
11348;SDS011;5729;43.570;27.826;2023-02-12T06:00:36;32.03;;;19.13;;
11348;SDS011;5729;43.570;27.826;2023-02-12T06:03:01;34.37;;;19.03;;
11348;SDS011;5729;43.570;27.826;2023-02-12T06:05:27;31.13;;;18.77;;
11348;SDS011;5729;43.570;27.826;2023-02-12T06:07:52;33.70;;;19.03;;
11348;SDS011;5729;43.570;27.826;2023-02-12T06:10:17;31.77;;;19.10;;
11348;SDS011;5729;43.570;27.826;2023-02-12T06:12:43;33.13;;;19.60;;
11348;SDS011;5729;43.570;27.826;2023-02-12T06:15:08;35.37;;;20.17;;
11348;SDS011;5729;43.570;27.826;2023-02-12T06:17:34;38.93;;;19.10;;
11348;SDS011;5729;43.570;27.826;2023-02-12T06:20:00;34.63;;;20.47;;
11348;SDS011;5729;43.570;27.826;2023-02-12T06:22:26;36.70;;;18.70;;
11348;SDS011;5729;43.570;27.826;2023-02-12T06:24:54;39.10;;;20.10;;
11348;SDS011;5729;43.570;27.826;2023-02-12T06:27:19;41.23;;;20.80;;
11348;SDS011;5729;43.570;27.826;2023-02-12T06:29:44;38.77;;;21.60;;
11348;SDS011;5729;43.570;27.826;2023-02-12T06:32:10;39.80;;;22.63;;
11348;SDS011;5729;43.570;27.826;2023-02-12T06:34:37;44.23;;;22.53;;
11348;SDS011;5729;43.570;27.826;2023-02-12T06:37:03;45.40;;;24.03;;
11348;SDS011;5729;43.570;27.826;2023-02-12T06:39:29;41.57;;;23.40;;
11348;SDS011;5729;43.570;27.826;2023-02-12T06:41:54;39.47;;;24.40;;
11348;SDS011;5729;43.570;27.826;2023-02-12T06:44:19;44.43;;;26.50;;
11348;SDS011;5729;43.570;27.826;2023-02-12T06:46:45;45.87;;;26.77;;
11348;SDS011;5729;43.570;27.826;2023-02-12T06:49:11;47.27;;;26.77;;
11348;SDS011;5729;43.570;27.826;2023-02-12T06:51:38;39.90;;;23.50;;
11348;SDS011;5729;43.570;27.826;2023-02-12T06:54:09;37.43;;;22.97;;
11348;SDS011;5729;43.570;27.826;2023-02-12T06:56:37;42.77;;;25.97;;
11348;SDS011;5729;43.570;27.826;2023-02-12T06:59:03;37.50;;;21.83;;
11348;SDS011;5729;43.570;27.826;2023-02-12T07:01:29;41.73;;;24.00;;
11348;SDS011;5729;43.570;27.826;2023-02-12T07:03:58;34.60;;;21.30;;
11348;SDS011;5729;43.570;27.826;2023-02-12T07:06:26;42.57;;;26.00;;
11348;SDS011;5729;43.570;27.826;2023-02-12T07:08:54;35.20;;;23.13;;
11348;SDS011;5729;43.570;27.826;2023-02-12T07:11:24;35.57;;;21.57;;
11348;SDS011;5729;43.570;27.826;2023-02-12T07:13:51;33.00;;;20.10;;
11348;SDS011;5729;43.570;27.826;2023-02-12T07:16:17;41.43;;;23.13;;
11348;SDS011;5729;43.570;27.826;2023-02-12T07:18:43;31.20;;;19.50;;
11348;SDS011;5729;43.570;27.826;2023-02-12T07:21:10;30.90;;;18.53;;
11348;SDS011;5729;43.570;27.826;2023-02-12T07:23:37;30.60;;;18.63;;
11348;SDS011;5729;43.570;27.826;2023-02-12T07:26:07;31.80;;;18.73;;
11348;SDS011;5729;43.570;27.826;2023-02-12T07:28:35;29.30;;;17.93;;
11348;SDS011;5729;43.570;27.826;2023-02-12T07:31:07;33.00;;;18.50;;
11348;SDS011;5729;43.570;27.826;2023-02-12T07:33:34;32.23;;;19.40;;
11348;SDS011;5729;43.570;27.826;2023-02-12T07:36:00;36.10;;;21.63;;
11348;SDS011;5729;43.570;27.826;2023-02-12T07:38:27;38.30;;;22.30;;
11348;SDS011;5729;43.570;27.826;2023-02-12T07:40:53;34.47;;;20.83;;
11348;SDS011;5729;43.570;27.826;2023-02-12T07:43:18;38.07;;;21.70;;
11348;SDS011;5729;43.570;27.826;2023-02-12T07:45:44;34.17;;;20.17;;
11348;SDS011;5729;43.570;27.826;2023-02-12T07:48:09;35.33;;;21.17;;
11348;SDS011;5729;43.570;27.826;2023-02-12T07:50:35;36.63;;;21.53;;
11348;SDS011;5729;43.570;27.826;2023-02-12T07:53:00;37.20;;;21.73;;
11348;SDS011;5729;43.570;27.826;2023-02-12T07:55:26;51.03;;;30.43;;
11348;SDS011;5729;43.570;27.826;2023-02-12T07:57:51;33.47;;;20.83;;
11348;SDS011;5729;43.570;27.826;2023-02-12T08:00:17;31.13;;;18.93;;
11348;SDS011;5729;43.570;27.826;2023-02-12T08:02:42;29.47;;;19.10;;
11348;SDS011;5729;43.570;27.826;2023-02-12T08:05:08;38.73;;;23.87;;
11348;SDS011;5729;43.570;27.826;2023-02-12T08:07:33;39.60;;;23.20;;
11348;SDS011;5729;43.570;27.826;2023-02-12T08:09:59;37.57;;;23.27;;
11348;SDS011;5729;43.570;27.826;2023-02-12T08:12:24;36.37;;;23.03;;
11348;SDS011;5729;43.570;27.826;2023-02-12T08:14:49;40.43;;;22.37;;
11348;SDS011;5729;43.570;27.826;2023-02-12T08:17:15;36.60;;;21.30;;
11348;SDS011;5729;43.570;27.826;2023-02-12T08:19:40;38.50;;;22.77;;
11348;SDS011;5729;43.570;27.826;2023-02-12T08:22:06;35.30;;;22.60;;
11348;SDS011;5729;43.570;27.826;2023-02-12T08:24:32;36.97;;;21.00;;
11348;SDS011;5729;43.570;27.826;2023-02-12T08:26:57;31.57;;;20.60;;
11348;SDS011;5729;43.570;27.826;2023-02-12T08:29:24;30.93;;;20.90;;
11348;SDS011;5729;43.570;27.826;2023-02-12T08:31:56;31.67;;;19.20;;
11348;SDS011;5729;43.570;27.826;2023-02-12T08:34:27;29.70;;;18.57;;
11348;SDS011;5729;43.570;27.826;2023-02-12T08:36:54;36.43;;;21.87;;
11348;SDS011;5729;43.570;27.826;2023-02-12T08:39:21;36.87;;;21.97;;
11348;SDS011;5729;43.570;27.826;2023-02-12T08:41:48;35.43;;;20.53;;
11348;SDS011;5729;43.570;27.826;2023-02-12T08:44:14;36.13;;;21.73;;
11348;SDS011;5729;43.570;27.826;2023-02-12T08:46:45;35.50;;;23.30;;
11348;SDS011;5729;43.570;27.826;2023-02-12T08:49:15;37.00;;;23.17;;
11348;SDS011;5729;43.570;27.826;2023-02-12T08:51:43;32.87;;;21.53;;
11348;SDS011;5729;43.570;27.826;2023-02-12T08:54:12;35.30;;;20.80;;
11348;SDS011;5729;43.570;27.826;2023-02-12T08:56:40;40.07;;;22.47;;
11348;SDS011;5729;43.570;27.826;2023-02-12T08:59:06;34.17;;;19.77;;
11348;SDS011;5729;43.570;27.826;2023-02-12T09:01:33;33.90;;;20.63;;
11348;SDS011;5729;43.570;27.826;2023-02-12T09:04:02;41.27;;;22.67;;
11348;SDS011;5729;43.570;27.826;2023-02-12T09:06:30;37.80;;;24.00;;
11348;SDS011;5729;43.570;27.826;2023-02-12T09:08:57;36.73;;;21.37;;
11348;SDS011;5729;43.570;27.826;2023-02-12T09:11:24;39.10;;;24.07;;
11348;SDS011;5729;43.570;27.826;2023-02-12T09:13:54;37.13;;;23.30;;
11348;SDS011;5729;43.570;27.826;2023-02-12T09:16:22;37.40;;;21.77;;
11348;SDS011;5729;43.570;27.826;2023-02-12T09:18:48;40.03;;;24.27;;
11348;SDS011;5729;43.570;27.826;2023-02-12T09:21:13;45.47;;;26.70;;
11348;SDS011;5729;43.570;27.826;2023-02-12T09:23:41;40.07;;;23.80;;
11348;SDS011;5729;43.570;27.826;2023-02-12T09:26:08;37.20;;;22.20;;
11348;SDS011;5729;43.570;27.826;2023-02-12T09:28:36;38.03;;;23.73;;
11348;SDS011;5729;43.570;27.826;2023-02-12T09:33:52;35.17;;;21.17;;
11348;SDS011;5729;43.570;27.826;2023-02-12T09:36:18;37.13;;;21.80;;
11348;SDS011;5729;43.570;27.826;2023-02-12T09:38:44;44.57;;;25.17;;
11348;SDS011;5729;43.570;27.826;2023-02-12T09:44:03;38.23;;;23.00;;
11348;SDS011;5729;43.570;27.826;2023-02-12T09:46:47;38.47;;;22.27;;
11348;SDS011;5729;43.570;27.826;2023-02-12T09:49:16;34.87;;;21.97;;
11348;SDS011;5729;43.570;27.826;2023-02-12T09:51:51;35.43;;;21.70;;
11348;SDS011;5729;43.570;27.826;2023-02-12T09:54:20;45.60;;;24.57;;
11348;SDS011;5729;43.570;27.826;2023-02-12T09:56:49;37.30;;;24.83;;
11348;SDS011;5729;43.570;27.826;2023-02-12T09:59:22;43.47;;;25.95;;
11348;SDS011;5729;43.570;27.826;2023-02-12T10:01:52;39.88;;;23.48;;
11348;SDS011;5729;43.570;27.826;2023-02-12T10:04:18;45.23;;;24.20;;
11348;SDS011;5729;43.570;27.826;2023-02-12T10:07:04;42.97;;;26.90;;
11348;SDS011;5729;43.570;27.826;2023-02-12T10:09:56;47.05;;;25.75;;
11348;SDS011;5729;43.570;27.826;2023-02-12T10:15:13;41.57;;;23.77;;
11348;SDS011;5729;43.570;27.826;2023-02-12T10:23:57;47.53;;;26.70;;
11348;SDS011;5729;43.570;27.826;2023-02-12T10:26:32;43.88;;;27.08;;
11348;SDS011;5729;43.570;27.826;2023-02-12T10:29:12;45.00;;;26.60;;
11348;SDS011;5729;43.570;27.826;2023-02-12T10:31:43;43.13;;;25.08;;
11348;SDS011;5729;43.570;27.826;2023-02-12T10:34:14;39.40;;;23.15;;
11348;SDS011;5729;43.570;27.826;2023-02-12T10:36:45;34.50;;;20.75;;
11348;SDS011;5729;43.570;27.826;2023-02-12T10:39:16;35.78;;;21.33;;
11348;SDS011;5729;43.570;27.826;2023-02-12T10:41:46;33.63;;;20.42;;
11348;SDS011;5729;43.570;27.826;2023-02-12T10:44:25;34.10;;;21.00;;
11348;SDS011;5729;43.570;27.826;2023-02-12T10:46:51;33.83;;;21.45;;
11348;SDS011;5729;43.570;27.826;2023-02-12T10:49:17;39.57;;;22.97;;
11348;SDS011;5729;43.570;27.826;2023-02-12T10:54:47;39.20;;;24.37;;
11348;SDS011;5729;43.570;27.826;2023-02-12T10:57:19;39.33;;;22.93;;
11348;SDS011;5729;43.570;27.826;2023-02-12T10:59:48;36.63;;;21.73;;
11348;SDS011;5729;43.570;27.826;2023-02-12T11:04:51;40.53;;;23.48;;
11348;SDS011;5729;43.570;27.826;2023-02-12T11:07:18;48.03;;;26.00;;
11348;SDS011;5729;43.570;27.826;2023-02-12T11:09:46;41.80;;;23.25;;
11348;SDS011;5729;43.570;27.826;2023-02-12T11:14:55;32.22;;;20.38;;
11348;SDS011;5729;43.570;27.826;2023-02-12T11:17:44;34.57;;;20.80;;
11348;SDS011;5729;43.570;27.826;2023-02-12T11:22:57;34.72;;;22.88;;
11348;SDS011;5729;43.570;27.826;2023-02-12T11:25:26;30.77;;;19.20;;
11348;SDS011;5729;43.570;27.826;2023-02-12T11:30:50;34.17;;;20.52;;
11348;SDS011;5729;43.570;27.826;2023-02-12T11:33:24;31.30;;;19.33;;
11348;SDS011;5729;43.570;27.826;2023-02-12T11:35:54;35.55;;;21.30;;
11348;SDS011;5729;43.570;27.826;2023-02-12T11:41:26;42.67;;;23.70;;
11348;SDS011;5729;43.570;27.826;2023-02-12T11:43:58;37.17;;;23.07;;
11348;SDS011;5729;43.570;27.826;2023-02-12T11:46:25;40.67;;;22.90;;
11348;SDS011;5729;43.570;27.826;2023-02-12T11:48:53;32.97;;;20.00;;
11348;SDS011;5729;43.570;27.826;2023-02-12T11:51:23;30.23;;;19.00;;
11348;SDS011;5729;43.570;27.826;2023-02-12T11:53:53;28.27;;;18.67;;
11348;SDS011;5729;43.570;27.826;2023-02-12T11:56:21;30.23;;;19.90;;
11348;SDS011;5729;43.570;27.826;2023-02-12T11:58:48;32.33;;;19.23;;
11348;SDS011;5729;43.570;27.826;2023-02-12T12:01:20;34.73;;;21.50;;
11348;SDS011;5729;43.570;27.826;2023-02-12T12:04:02;37.93;;;21.93;;
11348;SDS011;5729;43.570;27.826;2023-02-12T12:09:20;28.50;;;16.93;;
11348;SDS011;5729;43.570;27.826;2023-02-12T12:11:57;33.17;;;19.60;;
11348;SDS011;5729;43.570;27.826;2023-02-12T12:14:28;33.57;;;19.80;;
11348;SDS011;5729;43.570;27.826;2023-02-12T12:20:31;55.70;;;31.67;;
11348;SDS011;5729;43.570;27.826;2023-02-12T12:23:08;30.10;;;18.53;;
11348;SDS011;5729;43.570;27.826;2023-02-12T12:31:00;28.13;;;17.47;;
11348;SDS011;5729;43.570;27.826;2023-02-12T12:33:31;33.07;;;17.60;;
11348;SDS011;5729;43.570;27.826;2023-02-12T12:38:44;26.13;;;16.30;;
11348;SDS011;5729;43.570;27.826;2023-02-12T12:51:22;30.93;;;17.73;;
11348;SDS011;5729;43.570;27.826;2023-02-12T12:54:13;25.57;;;15.07;;
11348;SDS011;5729;43.570;27.826;2023-02-12T13:08:27;24.63;;;15.33;;
11348;SDS011;5729;43.570;27.826;2023-02-12T13:10:59;29.77;;;16.40;;
11348;SDS011;5729;43.570;27.826;2023-02-12T13:13:45;27.73;;;16.60;;
11348;SDS011;5729;43.570;27.826;2023-02-12T13:16:16;27.23;;;17.07;;
11348;SDS011;5729;43.570;27.826;2023-02-12T13:18:51;22.63;;;14.37;;
11348;SDS011;5729;43.570;27.826;2023-02-12T13:27:15;49.57;;;30.03;;
11348;SDS011;5729;43.570;27.826;2023-02-12T13:32:28;31.57;;;20.20;;
11348;SDS011;5729;43.570;27.826;2023-02-12T13:34:56;37.23;;;22.93;;
11348;SDS011;5729;43.570;27.826;2023-02-12T13:37:46;32.57;;;20.23;;
11348;SDS011;5729;43.570;27.826;2023-02-12T13:40:23;30.73;;;18.80;;
11348;SDS011;5729;43.570;27.826;2023-02-12T13:51:24;31.37;;;18.60;;
11348;SDS011;5729;43.570;27.826;2023-02-12T14:00:13;36.63;;;20.27;;
11348;SDS011;5729;43.570;27.826;2023-02-12T14:04:58;29.97;;;19.67;;
11348;SDS011;5729;43.570;27.826;2023-02-12T14:07:39;37.90;;;21.50;;
11348;SDS011;5729;43.570;27.826;2023-02-12T14:10:07;44.40;;;25.73;;
11348;SDS011;5729;43.570;27.826;2023-02-12T14:12:43;50.53;;;28.07;;
11348;SDS011;5729;43.570;27.826;2023-02-12T14:25:55;48.08;;;30.13;;
11348;SDS011;5729;43.570;27.826;2023-02-12T14:28:31;41.45;;;23.77;;
11348;SDS011;5729;43.570;27.826;2023-02-12T14:31:19;35.45;;;22.33;;
11348;SDS011;5729;43.570;27.826;2023-02-12T14:41:37;35.92;;;23.60;;
11348;SDS011;5729;43.570;27.826;2023-02-12T14:44:49;29.13;;;18.85;;
11348;SDS011;5729;43.570;27.826;2023-02-12T14:47:02;38.05;;;22.48;;
11348;SDS011;5729;43.570;27.826;2023-02-12T14:49:48;55.83;;;33.92;;
11348;SDS011;5729;43.570;27.826;2023-02-12T14:52:26;35.00;;;21.58;;
11348;SDS011;5729;43.570;27.826;2023-02-12T14:55:02;32.80;;;20.85;;
11348;SDS011;5729;43.570;27.826;2023-02-12T14:57:34;31.63;;;20.80;;
11348;SDS011;5729;43.570;27.826;2023-02-12T15:03:18;39.38;;;25.58;;
11348;SDS011;5729;43.570;27.826;2023-02-12T15:11:16;81.57;;;49.40;;
11348;SDS011;5729;43.570;27.826;2023-02-12T15:22:48;36.37;;;23.30;;
11348;SDS011;5729;43.570;27.826;2023-02-12T15:30:31;36.30;;;23.60;;
11348;SDS011;5729;43.570;27.826;2023-02-12T15:33:00;57.13;;;35.17;;
11348;SDS011;5729;43.570;27.826;2023-02-12T15:35:33;64.53;;;36.30;;
11348;SDS011;5729;43.570;27.826;2023-02-12T15:38:00;42.03;;;24.47;;
11348;SDS011;5729;43.570;27.826;2023-02-12T15:40:28;67.60;;;32.23;;
11348;SDS011;5729;43.570;27.826;2023-02-12T15:43:02;68.20;;;35.60;;
11348;SDS011;5729;43.570;27.826;2023-02-12T15:45:30;34.60;;;20.83;;
11348;SDS011;5729;43.570;27.826;2023-02-12T15:48:09;44.60;;;27.73;;
11348;SDS011;5729;43.570;27.826;2023-02-12T15:50:52;225.83;;;72.17;;
11348;SDS011;5729;43.570;27.826;2023-02-12T15:53:41;79.83;;;41.50;;
11348;SDS011;5729;43.570;27.826;2023-02-12T15:56:14;42.70;;;25.00;;
11348;SDS011;5729;43.570;27.826;2023-02-12T15:58:48;41.67;;;23.53;;
11348;SDS011;5729;43.570;27.826;2023-02-12T16:01:19;50.83;;;26.40;;
11348;SDS011;5729;43.570;27.826;2023-02-12T16:03:54;42.87;;;22.87;;
11348;SDS011;5729;43.570;27.826;2023-02-12T16:06:22;43.00;;;21.77;;
11348;SDS011;5729;43.570;27.826;2023-02-12T16:08:50;40.03;;;23.03;;
11348;SDS011;5729;43.570;27.826;2023-02-12T16:11:22;41.10;;;23.80;;
11348;SDS011;5729;43.570;27.826;2023-02-12T16:13:50;38.17;;;23.67;;
11348;SDS011;5729;43.570;27.826;2023-02-12T16:16:40;42.00;;;22.60;;
11348;SDS011;5729;43.570;27.826;2023-02-12T16:19:28;42.60;;;24.07;;
11348;SDS011;5729;43.570;27.826;2023-02-12T16:22:07;54.63;;;29.53;;
11348;SDS011;5729;43.570;27.826;2023-02-12T16:24:45;44.67;;;25.27;;
11348;SDS011;5729;43.570;27.826;2023-02-12T16:29:45;42.67;;;26.37;;
11348;SDS011;5729;43.570;27.826;2023-02-12T16:47:53;29.53;;;15.27;;
11348;SDS011;5729;43.570;27.826;2023-02-12T16:50:23;29.23;;;16.80;;
11348;SDS011;5729;43.570;27.826;2023-02-12T16:52:58;31.43;;;16.67;;
11348;SDS011;5729;43.570;27.826;2023-02-12T16:55:25;35.67;;;19.87;;
11348;SDS011;5729;43.570;27.826;2023-02-12T16:57:51;39.97;;;21.37;;
11348;SDS011;5729;43.570;27.826;2023-02-12T17:00:16;58.57;;;31.33;;
11348;SDS011;5729;43.570;27.826;2023-02-12T17:02:42;38.40;;;21.10;;
11348;SDS011;5729;43.570;27.826;2023-02-12T17:05:09;24.77;;;14.93;;
11348;SDS011;5729;43.570;27.826;2023-02-12T17:07:35;25.33;;;15.80;;
11348;SDS011;5729;43.570;27.826;2023-02-12T17:10:01;28.37;;;19.37;;
11348;SDS011;5729;43.570;27.826;2023-02-12T17:12:27;37.53;;;22.23;;
11348;SDS011;5729;43.570;27.826;2023-02-12T17:14:52;71.03;;;42.80;;
11348;SDS011;5729;43.570;27.826;2023-02-12T17:17:19;50.23;;;30.57;;
11348;SDS011;5729;43.570;27.826;2023-02-12T17:19:45;35.97;;;22.27;;
11348;SDS011;5729;43.570;27.826;2023-02-12T17:22:20;95.30;;;51.47;;
11348;SDS011;5729;43.570;27.826;2023-02-12T17:24:48;27.30;;;18.60;;
11348;SDS011;5729;43.570;27.826;2023-02-12T17:27:18;28.53;;;16.47;;
11348;SDS011;5729;43.570;27.826;2023-02-12T17:29:44;23.10;;;14.27;;
11348;SDS011;5729;43.570;27.826;2023-02-12T17:32:10;18.50;;;13.03;;
11348;SDS011;5729;43.570;27.826;2023-02-12T17:34:36;18.97;;;11.63;;
11348;SDS011;5729;43.570;27.826;2023-02-12T17:37:02;19.60;;;12.77;;
11348;SDS011;5729;43.570;27.826;2023-02-12T17:39:28;12.93;;;9.10;;
11348;SDS011;5729;43.570;27.826;2023-02-12T17:41:54;15.27;;;10.10;;
11348;SDS011;5729;43.570;27.826;2023-02-12T17:44:20;46.20;;;25.40;;
11348;SDS011;5729;43.570;27.826;2023-02-12T17:46:45;17.37;;;11.47;;
11348;SDS011;5729;43.570;27.826;2023-02-12T17:49:10;25.27;;;16.33;;
11348;SDS011;5729;43.570;27.826;2023-02-12T17:51:37;15.33;;;11.10;;
11348;SDS011;5729;43.570;27.826;2023-02-12T17:54:02;18.63;;;12.33;;
11348;SDS011;5729;43.570;27.826;2023-02-12T17:56:28;14.83;;;10.10;;
11348;SDS011;5729;43.570;27.826;2023-02-12T17:58:54;11.40;;;7.57;;
11348;SDS011;5729;43.570;27.826;2023-02-12T18:01:20;15.53;;;10.23;;